Terminal Aerodrome Forecast
Issued by NWS Greer, SC

Home | Current Version | Previous Version | Text Only | Print | Product List | Glossary On
Versions: 1 2 3 4 5 6 7 8 9 10 11 12
022
FTUS42 KGSP 281732
TAFGSP
TAF
KGSP 281732Z 2818/2918 11006KT P6SM SCT050
     FM290000 11004KT P6SM SCT070 SCT250
     FM290600 07003KT P6SM BKN090
     FM291200 01007KT P6SM VCSH BKN050 PROB30 2915/2918 4SM -TSRA
      OVC025CB=

USA.gov is the U.S. government's official web portal to all federal, state and local government web resources and services.